Time;durP1;ratioP1;P1;durP2;ratioP2;P2;SDS_P1;SDS_P2;PMS_P1;PMS_P2;Temp;Humidity;BMP_temperature;BMP_pressure;BME280_temperature;BME280_humidity;BME280_pressure;Samples;Min_cycle;Max_cycle;Signal;HPM_P1;HPM_P2
2022/02/16 00:00:11;;;;;;;4.27;0.43;;;;;;;;;;5042889;28;20235;-74
2022/02/16 00:02:39;;;;;;;0.50;0.50;;;;;;;;;;5043951;28;20195;-74
2022/02/16 00:05:08;;;;;;;0.03;0.03;;;;;;;;;;5042083;28;21296;-77
2022/02/16 00:07:36;;;;;;;0.60;0.57;;;;;;;;;;5044160;28;20225;-74
2022/02/16 00:10:05;;;;;;;0.23;0.23;;;;;;;;;;5043708;28;20198;-74
2022/02/16 00:12:32;;;;;;;0.90;0.90;;;;;;;;;;5042432;28;20203;-74
2022/02/16 00:15:01;;;;;;;0.27;0.27;;;;;;;;;;5045783;28;20203;-74
2022/02/16 00:17:28;;;;;;;1.43;1.33;;;;;;;;;;5043592;28;20230;-74
2022/02/16 00:19:55;;;;;;;0.30;0.30;;;;;;;;;;5040980;28;20203;-73
2022/02/16 00:22:23;;;;;;;0.50;0.43;;;;;;;;;;5043025;28;20199;-74
2022/02/16 00:24:50;;;;;;;1.93;0.90;;;;;;;;;;5044558;28;20207;-74
2022/02/16 00:27:18;;;;;;;1.03;0.93;;;;;;;;;;5046572;28;20208;-74
2022/02/16 00:29:45;;;;;;;0.87;0.73;;;;;;;;;;5049513;28;20254;-76
2022/02/16 00:32:14;;;;;;;2.57;0.73;;;;;;;;;;5042209;28;20203;-74
2022/02/16 00:34:41;;;;;;;0.23;0.23;;;;;;;;;;5043098;28;20282;-73
2022/02/16 00:37:09;;;;;;;0.40;0.40;;;;;;;;;;5044433;28;20670;-75
2022/02/16 00:39:36;;;;;;;0.47;0.40;;;;;;;;;;5047311;28;20222;-75
2022/02/16 00:42:04;;;;;;;0.33;0.33;;;;;;;;;;5045744;28;20220;-75
2022/02/16 00:44:31;;;;;;;0.00;0.00;;;;;;;;;;5042209;28;20222;-73
2022/02/16 00:46:58;;;;;;;0.00;0.00;;;;;;;;;;5044767;28;20652;-75
2022/02/16 00:49:27;;;;;;;0.00;0.00;;;;;;;;;;5042587;28;20569;-75
2022/02/16 00:51:54;;;;;;;0.00;0.00;;;;;;;;;;5044478;28;20203;-75
2022/02/16 00:54:22;;;;;;;0.30;0.30;;;;;;;;;;5047119;28;20198;-73
2022/02/16 00:56:49;;;;;;;0.23;0.20;;;;;;;;;;5044305;28;20207;-75
2022/02/16 00:59:16;;;;;;;0.73;0.53;;;;;;;;;;5042317;28;20203;-74
2022/02/16 01:01:44;;;;;;;0.90;0.90;;;;;;;;;;5042344;28;20235;-75
2022/02/16 01:04:11;;;;;;;2.30;1.10;;;;;;;;;;5042460;28;20690;-75
2022/02/16 01:06:40;;;;;;;0.40;0.40;;;;;;;;;;5044304;28;20231;-74
2022/02/16 01:09:07;;;;;;;1.33;1.23;;;;;;;;;;5044706;28;20207;-72
2022/02/16 01:11:34;;;;;;;1.03;1.03;;;;;;;;;;5042684;28;20207;-73
2022/02/16 01:14:02;;;;;;;2.77;1.30;;;;;;;;;;5042164;28;20192;-73
2022/02/16 01:16:29;;;;;;;0.57;0.57;;;;;;;;;;5043903;28;20199;-73
2022/02/16 01:18:57;;;;;;;0.80;0.80;;;;;;;;;;5041731;28;21207;-75
2022/02/16 01:21:24;;;;;;;1.03;1.03;;;;;;;;;;5042287;28;20236;-74
2022/02/16 01:23:53;;;;;;;0.87;0.87;;;;;;;;;;5042621;28;20199;-74
2022/02/16 01:26:22;;;;;;;0.37;0.37;;;;;;;;;;5042610;28;20211;-75
2022/02/16 01:28:49;;;;;;;0.47;0.47;;;;;;;;;;5044941;28;20210;-73
2022/02/16 01:31:17;;;;;;;3.77;1.63;;;;;;;;;;5042896;28;20207;-74
2022/02/16 01:33:44;;;;;;;2.03;1.87;;;;;;;;;;5041764;28;20214;-73
2022/02/16 01:36:11;;;;;;;0.40;0.40;;;;;;;;;;5044436;28;20572;-76
2022/02/16 01:38:39;;;;;;;0.43;0.43;;;;;;;;;;5042907;28;20192;-75
2022/02/16 01:41:08;;;;;;;1.73;1.13;;;;;;;;;;5043077;28;20211;-74
2022/02/16 01:43:35;;;;;;;1.10;1.00;;;;;;;;;;5043397;28;20200;-75
2022/02/16 01:46:02;;;;;;;0.50;0.50;;;;;;;;;;5043228;28;20211;-77
2022/02/16 01:48:30;;;;;;;0.53;0.53;;;;;;;;;;5043613;28;20226;-76
2022/02/16 01:50:57;;;;;;;0.53;0.53;;;;;;;;;;5041753;28;20670;-77
2022/02/16 01:53:24;;;;;;;2.37;1.77;;;;;;;;;;5040866;28;20207;-76
2022/02/16 01:55:52;;;;;;;0.77;0.77;;;;;;;;;;5041480;28;20199;-74
2022/02/16 01:58:20;;;;;;;2.13;0.93;;;;;;;;;;5042725;28;20196;-73
2022/02/16 02:00:48;;;;;;;1.30;1.20;;;;;;;;;;5042195;28;20242;-75
2022/02/16 02:03:15;;;;;;;0.13;0.13;;;;;;;;;;5041676;28;20198;-73
2022/02/16 02:05:44;;;;;;;0.60;0.60;;;;;;;;;;5042436;28;20811;-76
2022/02/16 02:08:12;;;;;;;1.37;1.17;;;;;;;;;;5043273;28;20204;-74
2022/02/16 02:10:39;;;;;;;1.60;1.13;;;;;;;;;;5042512;28;20199;-73
2022/02/16 02:13:07;;;;;;;0.53;0.53;;;;;;;;;;5040568;28;20894;-74
2022/02/16 02:15:36;;;;;;;1.80;1.70;;;;;;;;;;5041780;28;20201;-74
2022/02/16 02:18:03;;;;;;;0.80;0.80;;;;;;;;;;5042017;28;20208;-73
2022/02/16 02:20:32;;;;;;;3.90;1.03;;;;;;;;;;5044019;28;20212;-75
2022/02/16 02:22:59;;;;;;;1.80;1.70;;;;;;;;;;5047058;28;20208;-74
2022/02/16 02:25:27;;;;;;;0.10;0.10;;;;;;;;;;5045714;28;20223;-73
2022/02/16 02:27:54;;;;;;;0.57;0.57;;;;;;;;;;5045101;28;20258;-75
2022/02/16 02:30:22;;;;;;;0.60;0.60;;;;;;;;;;5044129;28;20673;-75
2022/02/16 02:32:50;;;;;;;0.77;0.53;;;;;;;;;;5045851;28;20218;-75
2022/02/16 02:35:17;;;;;;;0.70;0.70;;;;;;;;;;5048855;28;20202;-73
2022/02/16 02:37:46;;;;;;;0.37;0.37;;;;;;;;;;5045397;28;20207;-76
2022/02/16 02:40:14;;;;;;;0.40;0.40;;;;;;;;;;5049632;28;20199;-72
2022/02/16 02:42:42;;;;;;;1.67;1.57;;;;;;;;;;5049966;28;20224;-73
2022/02/16 02:45:10;;;;;;;1.00;0.90;;;;;;;;;;5044535;28;20215;-76
2022/02/16 02:47:39;;;;;;;0.20;0.20;;;;;;;;;;5046602;28;20952;-74
2022/02/16 02:50:07;;;;;;;1.13;0.90;;;;;;;;;;5046494;28;20192;-74
2022/02/16 02:52:36;;;;;;;0.37;0.33;;;;;;;;;;5042591;28;21311;-74
2022/02/16 02:55:05;;;;;;;0.83;0.83;;;;;;;;;;5048214;28;20542;-74
2022/02/16 02:57:32;;;;;;;0.63;0.63;;;;;;;;;;5046317;28;20204;-76
2022/02/16 03:00:00;;;;;;;3.60;1.70;;;;;;;;;;5047018;28;20269;-72
2022/02/16 03:02:27;;;;;;;0.47;0.47;;;;;;;;;;5049722;28;20233;-73
2022/02/16 03:04:55;;;;;;;0.70;0.70;;;;;;;;;;5045092;28;20203;-75
2022/02/16 03:07:22;;;;;;;0.40;0.40;;;;;;;;;;5046526;28;20238;-74
2022/02/16 03:09:49;;;;;;;1.17;1.13;;;;;;;;;;5047192;28;20199;-77
2022/02/16 03:12:18;;;;;;;0.57;0.57;;;;;;;;;;5045732;28;20210;-76
2022/02/16 03:14:45;;;;;;;0.33;0.33;;;;;;;;;;5044724;28;20691;-76
2022/02/16 03:17:13;;;;;;;0.80;0.80;;;;;;;;;;5047198;28;20202;-74
2022/02/16 03:19:40;;;;;;;0.40;0.40;;;;;;;;;;5044019;28;20187;-77
2022/02/16 03:22:08;;;;;;;0.07;0.07;;;;;;;;;;5045597;28;20223;-74
2022/02/16 03:24:36;;;;;;;0.53;0.53;;;;;;;;;;5049260;28;20598;-75
2022/02/16 03:27:03;;;;;;;1.67;1.57;;;;;;;;;;5051088;28;21070;-76
2022/02/16 03:29:32;;;;;;;1.17;0.93;;;;;;;;;;5046553;28;20199;-75
2022/02/16 03:31:59;;;;;;;2.10;1.87;;;;;;;;;;5046921;28;20679;-75
2022/02/16 03:34:27;;;;;;;1.23;1.13;;;;;;;;;;5044927;28;20200;-76
2022/02/16 03:36:54;;;;;;;2.13;1.93;;;;;;;;;;5045567;28;20903;-73
2022/02/16 03:39:21;;;;;;;0.50;0.50;;;;;;;;;;5043679;28;20697;-76
2022/02/16 03:41:49;;;;;;;0.63;0.63;;;;;;;;;;5043023;28;20231;-77
2022/02/16 03:44:16;;;;;;;1.43;0.60;;;;;;;;;;5043511;28;20212;-78
2022/02/16 03:46:46;;;;;;;0.83;0.83;;;;;;;;;;5049213;28;20215;-75
2022/02/16 03:49:14;;;;;;;0.47;0.47;;;;;;;;;;5050784;28;20656;-76
2022/02/16 03:51:41;;;;;;;2.93;0.70;;;;;;;;;;5046360;28;20210;-76
2022/02/16 03:54:08;;;;;;;1.17;1.07;;;;;;;;;;5050844;28;20211;-75
2022/02/16 03:56:36;;;;;;;0.90;0.90;;;;;;;;;;5051877;28;20199;-75
2022/02/16 03:59:03;;;;;;;0.40;0.40;;;;;;;;;;5051044;28;20196;-76
2022/02/16 04:01:30;;;;;;;1.03;1.03;;;;;;;;;;5050459;28;20249;-77
2022/02/16 04:03:59;;;;;;;0.53;0.53;;;;;;;;;;5048193;28;20219;-75
2022/02/16 04:06:27;;;;;;;0.73;0.73;;;;;;;;;;5045563;28;21905;-76
2022/02/16 04:08:54;;;;;;;0.93;0.80;;;;;;;;;;5044296;28;20380;-74
2022/02/16 04:11:26;;;;;;;0.50;0.50;;;;;;;;;;5044110;28;20204;-75
2022/02/16 04:13:54;;;;;;;0.50;0.50;;;;;;;;;;5043731;28;21050;-77
2022/02/16 04:16:21;;;;;;;0.43;0.30;;;;;;;;;;5042979;28;20290;-75
2022/02/16 04:18:48;;;;;;;0.27;0.27;;;;;;;;;;5042325;28;20195;-75
2022/02/16 04:21:17;;;;;;;0.93;0.87;;;;;;;;;;5043573;28;20218;-75
2022/02/16 04:23:45;;;;;;;0.30;0.30;;;;;;;;;;5047099;28;20564;-76
2022/02/16 04:26:12;;;;;;;0.23;0.23;;;;;;;;;;5046263;28;20888;-74
2022/02/16 04:28:40;;;;;;;0.40;0.40;;;;;;;;;;5042598;28;20234;-76
2022/02/16 04:31:08;;;;;;;0.43;0.43;;;;;;;;;;5047213;28;20201;-75
2022/02/16 04:33:35;;;;;;;0.77;0.77;;;;;;;;;;5042076;28;20688;-75
2022/02/16 04:36:03;;;;;;;1.17;1.10;;;;;;;;;;5044361;28;20668;-75
2022/02/16 04:38:31;;;;;;;0.40;0.40;;;;;;;;;;5045491;28;20203;-74
2022/02/16 04:40:59;;;;;;;1.50;1.40;;;;;;;;;;5047514;28;20656;-75
2022/02/16 04:43:28;;;;;;;0.93;0.70;;;;;;;;;;5049409;28;20230;-73
2022/02/16 04:45:55;;;;;;;0.63;0.50;;;;;;;;;;5051658;28;20207;-75
2022/02/16 04:48:23;;;;;;;0.73;0.73;;;;;;;;;;5045544;28;20207;-74
2022/02/16 04:50:50;;;;;;;0.67;0.67;;;;;;;;;;5042965;28;20196;-75
2022/02/16 04:53:18;;;;;;;0.87;0.80;;;;;;;;;;5048021;28;20663;-74
2022/02/16 04:55:46;;;;;;;1.93;1.83;;;;;;;;;;5042700;28;20697;-77
2022/02/16 04:58:14;;;;;;;1.27;1.17;;;;;;;;;;5041196;28;20199;-74
2022/02/16 05:00:41;;;;;;;1.03;0.90;;;;;;;;;;5040683;28;20203;-75
2022/02/16 05:03:08;;;;;;;0.80;0.80;;;;;;;;;;5041825;28;20219;-74
2022/02/16 05:05:36;;;;;;;1.27;1.17;;;;;;;;;;5044483;28;20229;-74
2022/02/16 05:08:03;;;;;;;0.60;0.50;;;;;;;;;;5043721;28;20285;-75
2022/02/16 05:10:31;;;;;;;0.57;0.57;;;;;;;;;;5041381;28;20668;-75
2022/02/16 05:12:59;;;;;;;2.00;1.80;;;;;;;;;;5046048;28;20301;-74
2022/02/16 05:15:27;;;;;;;0.40;0.40;;;;;;;;;;5042360;28;20202;-77
2022/02/16 05:17:54;;;;;;;0.50;0.43;;;;;;;;;;5040649;28;20540;-76
2022/02/16 05:20:22;;;;;;;0.60;0.60;;;;;;;;;;5041145;28;20195;-76
2022/02/16 05:22:49;;;;;;;1.03;0.93;;;;;;;;;;5042988;28;20227;-75
2022/02/16 05:25:16;;;;;;;0.43;0.20;;;;;;;;;;5042835;28;20206;-77
2022/02/16 05:27:44;;;;;;;0.53;0.53;;;;;;;;;;5042129;28;20195;-72
2022/02/16 05:30:14;;;;;;;0.60;0.60;;;;;;;;;;5043454;28;20200;-76
2022/02/16 05:32:42;;;;;;;0.20;0.20;;;;;;;;;;5043642;28;20957;-77
2022/02/16 05:35:10;;;;;;;0.83;0.83;;;;;;;;;;5042562;28;20241;-75
2022/02/16 05:37:38;;;;;;;0.00;0.00;;;;;;;;;;5042604;28;20269;-75
2022/02/16 05:40:06;;;;;;;0.37;0.37;;;;;;;;;;5041351;28;20206;-74
2022/02/16 05:42:36;;;;;;;0.03;0.03;;;;;;;;;;5042342;28;20226;-79
2022/02/16 05:45:05;;;;;;;0.23;0.23;;;;;;;;;;5041190;28;20213;-75
2022/02/16 05:47:33;;;;;;;0.87;0.87;;;;;;;;;;5043310;28;20211;-72
2022/02/16 05:50:01;;;;;;;0.67;0.67;;;;;;;;;;5043429;28;21017;-74
2022/02/16 05:52:28;;;;;;;0.40;0.40;;;;;;;;;;5044163;28;20226;-77
2022/02/16 05:54:55;;;;;;;0.70;0.70;;;;;;;;;;5042548;28;20705;-75
2022/02/16 05:57:23;;;;;;;0.30;0.17;;;;;;;;;;5045246;28;20202;-73
2022/02/16 05:59:50;;;;;;;0.10;0.10;;;;;;;;;;5041361;28;20199;-75
2022/02/16 06:02:18;;;;;;;0.10;0.10;;;;;;;;;;5045456;28;20785;-73
2022/02/16 06:04:46;;;;;;;0.53;0.53;;;;;;;;;;5049071;28;20210;-72
2022/02/16 06:07:14;;;;;;;0.27;0.27;;;;;;;;;;5046704;28;20223;-75
2022/02/16 06:09:41;;;;;;;0.20;0.00;;;;;;;;;;5046236;28;20210;-74
2022/02/16 06:12:09;;;;;;;0.30;0.30;;;;;;;;;;5044908;28;20191;-75
2022/02/16 06:14:36;;;;;;;0.00;0.00;;;;;;;;;;5046622;28;20203;-75
2022/02/16 06:17:04;;;;;;;0.00;0.00;;;;;;;;;;5043532;28;20198;-75
2022/02/16 06:19:31;;;;;;;0.10;0.10;;;;;;;;;;5045593;28;20700;-74
2022/02/16 06:22:00;;;;;;;0.17;0.17;;;;;;;;;;5048073;28;20215;-76
2022/02/16 06:24:27;;;;;;;0.10;0.10;;;;;;;;;;5050167;28;20204;-77
2022/02/16 06:26:55;;;;;;;0.20;0.20;;;;;;;;;;5046215;28;20203;-75
2022/02/16 06:29:22;;;;;;;0.63;0.63;;;;;;;;;;5054845;28;21051;-76
2022/02/16 06:31:50;;;;;;;0.00;0.00;;;;;;;;;;5052389;28;20206;-75
2022/02/16 06:34:17;;;;;;;0.00;0.00;;;;;;;;;;5053875;28;20592;-75
2022/02/16 06:36:45;;;;;;;0.83;0.10;;;;;;;;;;5053264;28;20195;-73
2022/02/16 06:39:13;;;;;;;0.13;0.13;;;;;;;;;;5051125;28;20325;-75
2022/02/16 06:41:41;;;;;;;0.03;0.03;;;;;;;;;;5051249;28;20196;-74
2022/02/16 06:44:08;;;;;;;0.20;0.20;;;;;;;;;;5044191;28;20741;-75
2022/02/16 06:46:35;;;;;;;0.20;0.20;;;;;;;;;;5045750;28;20192;-75
2022/02/16 06:49:03;;;;;;;0.20;0.20;;;;;;;;;;5046088;28;20203;-74
2022/02/16 06:51:31;;;;;;;0.10;0.00;;;;;;;;;;5046481;28;20196;-74
2022/02/16 06:53:58;;;;;;;0.37;0.37;;;;;;;;;;5055896;28;20297;-73
2022/02/16 06:56:28;;;;;;;0.67;0.67;;;;;;;;;;5051588;28;20199;-73
2022/02/16 06:58:55;;;;;;;0.20;0.20;;;;;;;;;;5052915;28;20688;-73
2022/02/16 07:01:22;;;;;;;0.00;0.00;;;;;;;;;;5050671;28;20736;-73
2022/02/16 07:03:50;;;;;;;1.23;1.07;;;;;;;;;;5047303;28;20227;-73
2022/02/16 07:06:17;;;;;;;0.63;0.63;;;;;;;;;;5047404;28;20228;-73
2022/02/16 07:08:44;;;;;;;0.10;0.03;;;;;;;;;;5047690;28;20199;-73
2022/02/16 07:11:12;;;;;;;1.20;0.63;;;;;;;;;;5043617;28;21043;-73
2022/02/16 07:13:40;;;;;;;0.77;0.60;;;;;;;;;;5053410;28;20199;-73
2022/02/16 07:16:08;;;;;;;0.40;0.40;;;;;;;;;;5053090;28;20253;-73
2022/02/16 07:18:39;;;;;;;1.63;1.20;;;;;;;;;;5050101;28;20664;-73
2022/02/16 07:21:08;;;;;;;0.50;0.50;;;;;;;;;;5052850;28;20574;-72
2022/02/16 07:23:36;;;;;;;0.20;0.20;;;;;;;;;;5050050;28;20211;-76
2022/02/16 07:26:03;;;;;;;0.70;0.70;;;;;;;;;;5050586;28;20207;-73
2022/02/16 07:28:31;;;;;;;8.40;3.40;;;;;;;;;;5049069;28;20207;-72
2022/02/16 07:31:00;;;;;;;0.97;0.87;;;;;;;;;;5051554;28;20207;-73
2022/02/16 07:33:28;;;;;;;0.33;0.33;;;;;;;;;;5050118;28;20214;-73
2022/02/16 07:35:55;;;;;;;0.57;0.27;;;;;;;;;;5050341;28;20661;-73
2022/02/16 07:38:23;;;;;;;1.27;1.17;;;;;;;;;;5051771;28;20216;-73
2022/02/16 07:40:51;;;;;;;0.93;0.80;;;;;;;;;;5050738;28;20209;-73
2022/02/16 07:43:18;;;;;;;0.60;0.60;;;;;;;;;;5049592;28;20242;-73
2022/02/16 07:45:45;;;;;;;1.13;1.13;;;;;;;;;;5048920;28;20197;-73
2022/02/16 07:48:14;;;;;;;2.97;0.80;;;;;;;;;;5050044;28;20200;-73
2022/02/16 07:50:42;;;;;;;0.70;0.60;;;;;;;;;;5043406;28;20997;-75
2022/02/16 07:53:11;;;;;;;1.03;0.90;;;;;;;;;;5043910;28;20652;-75
2022/02/16 07:55:39;;;;;;;1.57;1.47;;;;;;;;;;5052811;28;21103;-73
2022/02/16 07:58:08;;;;;;;1.00;0.70;;;;;;;;;;5052912;28;20267;-72
2022/02/16 08:00:37;;;;;;;6.93;0.97;;;;;;;;;;5053225;28;20291;-71
2022/02/16 08:03:05;;;;;;;1.70;1.53;;;;;;;;;;5052038;28;20216;-74
2022/02/16 08:05:34;;;;;;;3.93;0.90;;;;;;;;;;5048868;28;20249;-74
2022/02/16 08:08:01;;;;;;;0.70;0.70;;;;;;;;;;5050270;28;20210;-71
2022/02/16 08:10:29;;;;;;;1.80;1.67;;;;;;;;;;5050690;28;20207;-73
2022/02/16 08:12:57;;;;;;;2.73;1.73;;;;;;;;;;5044828;28;20199;-75
2022/02/16 08:15:25;;;;;;;3.37;1.73;;;;;;;;;;5043378;28;20249;-70
2022/02/16 08:17:52;;;;;;;1.63;1.50;;;;;;;;;;5052671;28;20211;-73
2022/02/16 08:20:20;;;;;;;7.83;1.20;;;;;;;;;;5053677;28;20191;-73
2022/02/16 08:22:49;;;;;;;7.30;3.33;;;;;;;;;;5050499;28;20792;-70
2022/02/16 08:25:16;;;;;;;0.20;0.20;;;;;;;;;;5051130;28;20661;-71
2022/02/16 08:27:45;;;;;;;0.50;0.43;;;;;;;;;;5050795;28;20209;-69
2022/02/16 08:30:14;;;;;;;2.23;1.60;;;;;;;;;;5050535;28;20887;-71
2022/02/16 08:32:42;;;;;;;2.20;1.10;;;;;;;;;;5058344;28;20337;-71
2022/02/16 08:35:10;;;;;;;6.03;2.27;;;;;;;;;;5049916;28;20291;-74
2022/02/16 08:37:38;;;;;;;1.97;0.90;;;;;;;;;;5050319;28;20199;-72
2022/02/16 08:40:07;;;;;;;5.40;1.03;;;;;;;;;;5049503;28;20244;-75
2022/02/16 08:42:35;;;;;;;11.03;2.57;;;;;;;;;;5047382;28;20915;-71
2022/02/16 08:45:02;;;;;;;3.20;1.13;;;;;;;;;;5048400;28;20205;-72
2022/02/16 08:47:30;;;;;;;4.73;1.90;;;;;;;;;;5050482;28;20200;-75
2022/02/16 08:49:57;;;;;;;5.73;1.80;;;;;;;;;;5046684;28;20580;-73
2022/02/16 08:52:25;;;;;;;6.00;2.23;;;;;;;;;;5049566;28;20218;-73
2022/02/16 08:54:52;;;;;;;5.83;1.63;;;;;;;;;;5050422;28;20291;-73
2022/02/16 08:57:22;;;;;;;8.80;1.43;;;;;;;;;;5044186;28;20854;-70
2022/02/16 08:59:50;;;;;;;2.03;1.07;;;;;;;;;;5046338;28;21889;-75
2022/02/16 09:02:17;;;;;;;7.83;3.00;;;;;;;;;;5041753;28;20736;-67
2022/02/16 09:04:45;;;;;;;8.53;1.90;;;;;;;;;;5048409;28;20223;-72
2022/02/16 09:07:30;;;;;;;1.50;1.03;;;;;;;;;;5047467;28;20246;-75
2022/02/16 09:09:58;;;;;;;7.63;2.43;;;;;;;;;;5046885;28;20199;-71
2022/02/16 09:12:27;;;;;;;14.20;2.70;;;;;;;;;;5049145;28;21133;-72
2022/02/16 09:14:57;;;;;;;8.70;3.23;;;;;;;;;;5048777;28;20199;-72
2022/02/16 09:17:25;;;;;;;1.97;0.73;;;;;;;;;;5047913;28;20208;-73
2022/02/16 09:19:53;;;;;;;5.43;2.03;;;;;;;;;;5049564;28;21428;-73
2022/02/16 09:22:20;;;;;;;8.73;3.00;;;;;;;;;;5054099;28;20199;-73
2022/02/16 09:24:48;;;;;;;6.80;1.77;;;;;;;;;;5068473;28;20313;-73
2022/02/16 09:27:16;;;;;;;6.03;1.80;;;;;;;;;;5063519;28;20227;-72
2022/02/16 09:29:45;;;;;;;5.63;1.90;;;;;;;;;;5063331;28;20194;-72
2022/02/16 09:32:12;;;;;;;11.57;1.50;;;;;;;;;;5061414;28;20210;-73
2022/02/16 09:34:39;;;;;;;10.50;3.17;;;;;;;;;;5081499;28;20203;-72
2022/02/16 09:37:08;;;;;;;7.03;1.27;;;;;;;;;;5071865;28;20199;-72
2022/02/16 09:39:35;;;;;;;4.23;1.33;;;;;;;;;;5054730;28;20285;-73
2022/02/16 09:42:03;;;;;;;5.57;2.73;;;;;;;;;;5050435;28;20286;-73
2022/02/16 09:44:36;;;;;;;1.53;1.10;;;;;;;;;;5074098;28;20248;-73
2022/02/16 09:47:07;;;;;;;3.43;2.30;;;;;;;;;;5050569;28;20273;-69
2022/02/16 09:49:35;;;;;;;2.03;1.03;;;;;;;;;;5060061;28;20204;-72
2022/02/16 09:52:02;;;;;;;5.73;2.57;;;;;;;;;;5056888;28;20262;-72
2022/02/16 09:54:30;;;;;;;2.37;0.83;;;;;;;;;;5079244;28;20255;-73
2022/02/16 09:56:57;;;;;;;8.50;1.60;;;;;;;;;;5073411;28;20198;-71
2022/02/16 09:59:24;;;;;;;6.43;2.63;;;;;;;;;;5063461;28;20199;-72
2022/02/16 10:01:57;;;;;;;13.40;2.07;;;;;;;;;;5065131;28;20195;-72
2022/02/16 10:04:26;;;;;;;7.53;2.33;;;;;;;;;;5062057;28;20226;-71
2022/02/16 10:06:54;;;;;;;6.87;2.13;;;;;;;;;;5057367;28;20231;-72
2022/02/16 10:09:26;;;;;;;11.93;3.43;;;;;;;;;;5071114;28;20613;-71
2022/02/16 10:11:55;;;;;;;5.60;2.00;;;;;;;;;;5067726;28;20199;-71
2022/02/16 10:14:23;;;;;;;2.70;1.30;;;;;;;;;;5060388;28;20656;-71
2022/02/16 10:16:51;;;;;;;0.73;0.73;;;;;;;;;;5068822;28;20660;-71
2022/02/16 10:19:18;;;;;;;4.00;1.47;;;;;;;;;;5074013;28;20206;-72
2022/02/16 10:22:04;;;;;;;6.90;2.53;;;;;;;;;;5062179;28;20195;-71
2022/02/16 10:24:31;;;;;;;2.73;1.10;;;;;;;;;;5065108;28;20221;-71
2022/02/16 10:26:59;;;;;;;1.40;1.07;;;;;;;;;;5067097;28;20202;-71
2022/02/16 10:29:27;;;;;;;0.87;0.73;;;;;;;;;;5070001;28;20199;-72
2022/02/16 10:31:55;;;;;;;0.97;0.90;;;;;;;;;;5065794;28;20199;-73
2022/02/16 10:34:22;;;;;;;6.80;3.00;;;;;;;;;;5070945;28;20195;-72
2022/02/16 10:36:50;;;;;;;0.83;0.77;;;;;;;;;;5066839;28;20202;-71
2022/02/16 10:39:23;;;;;;;3.03;1.93;;;;;;;;;;5067931;28;20571;-71
2022/02/16 10:41:52;;;;;;;2.67;1.10;;;;;;;;;;5069708;28;20287;-73
2022/02/16 10:44:21;;;;;;;10.20;1.70;;;;;;;;;;5066477;28;20225;-71
2022/02/16 10:47:02;;;;;;;11.10;1.50;;;;;;;;;;5071586;28;20323;-73
2022/02/16 10:49:29;;;;;;;2.97;0.90;;;;;;;;;;5071897;28;20354;-74
2022/02/16 10:52:07;;;;;;;2.43;0.80;;;;;;;;;;5069918;28;20203;-71
2022/02/16 10:54:53;;;;;;;1.73;1.43;;;;;;;;;;5071685;28;20195;-74
2022/02/16 10:57:22;;;;;;;1.53;0.90;;;;;;;;;;5073643;28;20612;-70
2022/02/16 10:59:50;;;;;;;2.23;1.03;;;;;;;;;;5073755;28;20209;-73
2022/02/16 11:02:21;;;;;;;1.83;1.17;;;;;;;;;;5072135;28;20203;-72
2022/02/16 11:04:49;;;;;;;4.27;2.07;;;;;;;;;;5075951;28;20706;-72
2022/02/16 11:07:20;;;;;;;8.70;2.10;;;;;;;;;;5066034;28;20234;-70
2022/02/16 11:09:50;;;;;;;7.63;1.27;;;;;;;;;;5072347;28;20659;-71
2022/02/16 11:12:18;;;;;;;1.80;1.03;;;;;;;;;;5071501;28;20218;-68
2022/02/16 11:14:46;;;;;;;18.03;1.73;;;;;;;;;;5074758;28;20208;-70
2022/02/16 11:17:14;;;;;;;3.23;1.70;;;;;;;;;;5070411;28;20194;-70
2022/02/16 11:19:42;;;;;;;1.67;0.90;;;;;;;;;;5069224;28;20202;-71
2022/02/16 11:22:11;;;;;;;5.00;1.70;;;;;;;;;;5066680;28;20199;-73
2022/02/16 11:24:41;;;;;;;10.57;2.57;;;;;;;;;;5068850;28;20235;-71
2022/02/16 11:27:26;;;;;;;1.97;1.70;;;;;;;;;;5070655;28;20209;-72
2022/02/16 11:29:55;;;;;;;4.00;1.57;;;;;;;;;;5072506;28;20201;-73
2022/02/16 11:32:24;;;;;;;7.37;1.97;;;;;;;;;;5072506;28;20199;-71
2022/02/16 11:35:10;;;;;;;8.07;1.63;;;;;;;;;;5075074;28;20201;-73
2022/02/16 11:37:39;;;;;;;9.00;4.50;;;;;;;;;;5067248;28;20190;-71
2022/02/16 11:40:08;;;;;;;7.37;1.80;;;;;;;;;;5070623;28;21164;-69
2022/02/16 11:42:59;;;;;;;17.30;4.73;;;;;;;;;;5066204;28;20287;-71
2022/02/16 11:45:41;;;;;;;6.43;2.33;;;;;;;;;;5070254;28;20891;-73
2022/02/16 11:48:10;;;;;;;4.77;1.40;;;;;;;;;;5065464;28;20336;-72
2022/02/16 11:50:41;;;;;;;24.93;2.50;;;;;;;;;;5068714;28;20226;-71
2022/02/16 11:53:10;;;;;;;11.13;2.13;;;;;;;;;;5069986;28;20206;-73
2022/02/16 11:55:40;;;;;;;5.60;2.33;;;;;;;;;;5069824;28;20815;-72
2022/02/16 11:58:20;;;;;;;2.13;1.13;;;;;;;;;;5057332;28;20214;-71
2022/02/16 12:01:00;;;;;;;11.13;2.50;;;;;;;;;;5068297;28;20719;-74
2022/02/16 12:03:29;;;;;;;7.60;2.30;;;;;;;;;;5076151;28;20202;-71
2022/02/16 12:06:01;;;;;;;6.00;4.23;;;;;;;;;;5070283;28;20641;-71
2022/02/16 12:08:30;;;;;;;2.40;1.37;;;;;;;;;;5074570;28;21278;-73
2022/02/16 12:10:59;;;;;;;4.93;1.70;;;;;;;;;;5068942;28;20198;-71
2022/02/16 12:13:31;;;;;;;4.30;1.73;;;;;;;;;;5071393;28;20776;-70
2022/02/16 12:16:01;;;;;;;3.63;1.83;;;;;;;;;;5072895;28;20227;-71
2022/02/16 12:18:29;;;;;;;5.00;2.50;;;;;;;;;;5075886;28;20240;-71
2022/02/16 12:20:57;;;;;;;3.40;1.60;;;;;;;;;;5067865;28;20287;-71
2022/02/16 12:23:25;;;;;;;3.80;1.43;;;;;;;;;;5058419;28;20257;-72
2022/02/16 12:26:09;;;;;;;2.17;1.53;;;;;;;;;;5071944;28;20222;-71
2022/02/16 12:28:47;;;;;;;11.37;1.90;;;;;;;;;;5065003;28;20206;-72
2022/02/16 12:31:16;;;;;;;5.07;2.17;;;;;;;;;;5076056;28;20210;-72
2022/02/16 12:33:44;;;;;;;7.23;2.37;;;;;;;;;;5070587;28;20558;-71
2022/02/16 12:36:11;;;;;;;26.20;2.33;;;;;;;;;;5070598;28;20195;-71
2022/02/16 12:38:38;;;;;;;13.90;3.53;;;;;;;;;;5071228;28;20199;-71
2022/02/16 12:41:08;;;;;;;6.47;1.73;;;;;;;;;;5069303;28;20821;-71
2022/02/16 12:43:36;;;;;;;3.63;1.40;;;;;;;;;;5075109;28;20202;-75
2022/02/16 12:46:04;;;;;;;3.03;1.13;;;;;;;;;;5073236;28;20234;-71
2022/02/16 12:48:32;;;;;;;16.07;3.03;;;;;;;;;;5074362;28;20229;-72
2022/02/16 12:51:04;;;;;;;4.50;1.13;;;;;;;;;;5068932;28;20202;-69
2022/02/16 12:53:38;;;;;;;12.00;1.90;;;;;;;;;;5071946;28;20207;-69
2022/02/16 12:56:11;;;;;;;8.80;2.43;;;;;;;;;;5066738;28;20186;-70
2022/02/16 12:58:41;;;;;;;6.17;1.87;;;;;;;;;;5070056;28;20210;-72
2022/02/16 13:01:08;;;;;;;4.67;2.30;;;;;;;;;;5065915;28;20281;-71
2022/02/16 13:03:37;;;;;;;7.90;2.67;;;;;;;;;;5073380;28;20210;-70
2022/02/16 13:06:06;;;;;;;12.90;3.17;;;;;;;;;;5069423;28;20769;-70
2022/02/16 13:08:35;;;;;;;6.10;1.37;;;;;;;;;;5071817;28;20616;-72
2022/02/16 13:11:03;;;;;;;5.10;1.67;;;;;;;;;;5071905;28;20202;-71
2022/02/16 13:13:32;;;;;;;4.83;2.43;;;;;;;;;;5072470;28;20202;-71
2022/02/16 13:16:00;;;;;;;5.30;2.00;;;;;;;;;;5071866;28;20213;-69
2022/02/16 13:18:31;;;;;;;13.70;3.37;;;;;;;;;;5070603;28;20250;-74
2022/02/16 13:21:10;;;;;;;14.50;3.00;;;;;;;;;;5074593;28;20667;-70
2022/02/16 13:23:38;;;;;;;6.07;1.60;;;;;;;;;;5072954;28;20198;-71
2022/02/16 13:26:07;;;;;;;15.73;2.37;;;;;;;;;;5065085;28;20882;-70
2022/02/16 13:28:34;;;;;;;2.90;1.53;;;;;;;;;;5066716;28;20716;-72
2022/02/16 13:31:19;;;;;;;7.00;2.63;;;;;;;;;;5073996;28;20650;-69
2022/02/16 13:33:57;;;;;;;3.80;1.53;;;;;;;;;;5071454;28;20194;-72
2022/02/16 13:36:27;;;;;;;4.47;2.57;;;;;;;;;;5070202;28;20198;-69
2022/02/16 13:39:09;;;;;;;3.20;1.23;;;;;;;;;;5071222;28;20559;-71
2022/02/16 13:41:36;;;;;;;6.07;2.23;;;;;;;;;;5073100;28;20663;-72
2022/02/16 13:44:04;;;;;;;4.17;2.17;;;;;;;;;;5073471;28;20297;-73
2022/02/16 13:46:43;;;;;;;4.60;2.13;;;;;;;;;;5068615;28;20224;-72
2022/02/16 13:49:12;;;;;;;9.37;3.87;;;;;;;;;;5068504;28;20202;-71
2022/02/16 13:51:50;;;;;;;13.20;3.47;;;;;;;;;;5073543;28;20945;-71
2022/02/16 13:54:21;;;;;;;17.23;2.80;;;;;;;;;;5072221;28;20494;-72
2022/02/16 13:56:53;;;;;;;12.00;2.87;;;;;;;;;;5072447;28;20630;-71
2022/02/16 13:59:21;;;;;;;7.77;2.07;;;;;;;;;;5071189;28;20288;-71
2022/02/16 14:02:08;;;;;;;5.30;2.13;;;;;;;;;;5070810;28;20195;-74
2022/02/16 14:04:35;;;;;;;19.30;3.40;;;;;;;;;;5067522;28;20221;-71
2022/02/16 14:07:06;;;;;;;4.87;1.43;;;;;;;;;;5071141;28;20231;-71
2022/02/16 14:09:34;;;;;;;2.87;1.87;;;;;;;;;;5072574;28;20199;-71
2022/02/16 14:12:02;;;;;;;8.03;2.20;;;;;;;;;;5070094;28;20194;-71
2022/02/16 14:14:29;;;;;;;3.20;2.07;;;;;;;;;;5069594;28;20205;-72
2022/02/16 14:16:57;;;;;;;9.30;2.63;;;;;;;;;;5068374;28;20202;-72
2022/02/16 14:19:24;;;;;;;3.23;1.17;;;;;;;;;;5069368;28;20190;-73
2022/02/16 14:21:54;;;;;;;6.10;2.00;;;;;;;;;;5076371;28;20240;-74
2022/02/16 14:24:24;;;;;;;10.33;2.90;;;;;;;;;;5069270;28;20569;-72
2022/02/16 14:26:51;;;;;;;14.60;3.13;;;;;;;;;;5074587;28;20669;-73
2022/02/16 14:29:18;;;;;;;9.03;1.80;;;;;;;;;;5063204;28;20205;-70
2022/02/16 14:31:46;;;;;;;6.80;3.50;;;;;;;;;;5072540;28;20209;-73
2022/02/16 14:34:13;;;;;;;9.77;2.60;;;;;;;;;;5072836;28;20213;-71
2022/02/16 14:36:41;;;;;;;8.50;2.27;;;;;;;;;;5074358;28;20206;-70
2022/02/16 14:39:09;;;;;;;6.60;1.90;;;;;;;;;;5072378;28;20206;-72
2022/02/16 14:41:38;;;;;;;2.90;1.77;;;;;;;;;;5067229;28;20212;-75
2022/02/16 14:44:06;;;;;;;3.20;1.17;;;;;;;;;;5077754;28;20200;-73
2022/02/16 14:46:35;;;;;;;13.20;3.00;;;;;;;;;;5070229;28;20230;-72
2022/02/16 14:49:02;;;;;;;4.43;2.13;;;;;;;;;;5070621;28;20639;-71
2022/02/16 14:51:31;;;;;;;6.57;1.63;;;;;;;;;;5077503;28;20566;-72